Time;durP1;ratioP1;P1;durP2;ratioP2;P2;SDS_P1;SDS_P2;PMS_P1;PMS_P2;Temp;Humidity;BMP_temperature;BMP_pressure;BME280_temperature;BME280_humidity;BME280_pressure;Samples;Min_cycle;Max_cycle;Signal;HPM_P1;HPM_P2
2022/12/04 00:00:07;;;;;;;26.30;17.37;;;8.50;99.90;;;;;;5032068;28;20428;-72
2022/12/04 00:02:34;;;;;;;27.43;17.00;;;8.50;99.90;;;;;;5029877;28;20209;-72
2022/12/04 00:05:00;;;;;;;25.57;16.47;;;8.50;99.90;;;;;;5029784;28;20432;-72
2022/12/04 00:07:25;;;;;;;28.63;16.83;;;8.50;99.90;;;;;;5032740;28;20414;-72
2022/12/04 00:09:51;;;;;;;27.00;17.50;;;8.40;99.90;;;;;;5031076;28;20430;-72
2022/12/04 00:12:17;;;;;;;23.63;16.07;;;8.40;99.90;;;;;;5031694;28;20184;-72
2022/12/04 00:14:43;;;;;;;25.57;15.67;;;8.50;99.70;;;;;;5032228;28;20169;-72
2022/12/04 00:17:08;;;;;;;25.97;16.23;;;8.40;99.30;;;;;;5030982;28;20189;-72
2022/12/04 00:19:34;;;;;;;27.97;17.20;;;8.30;99.10;;;;;;5031821;28;20610;-72
2022/12/04 00:21:59;;;;;;;23.37;15.73;;;8.30;99.90;;;;;;5031334;28;20220;-72
2022/12/04 00:24:25;;;;;;;26.10;16.00;;;8.30;99.90;;;;;;5030937;28;20200;-72
2022/12/04 00:26:51;;;;;;;22.10;15.30;;;8.20;99.90;;;;;;5030687;28;20206;-72
2022/12/04 00:29:17;;;;;;;25.43;15.43;;;8.20;99.80;;;;;;5035608;28;20233;-72
2022/12/04 00:31:44;;;;;;;25.33;15.77;;;8.30;99.90;;;;;;5035242;28;20392;-72
2022/12/04 00:34:10;;;;;;;23.93;14.43;;;8.20;99.90;;;;;;5034940;28;20436;-72
2022/12/04 00:36:36;;;;;;;24.10;16.27;;;8.20;98.90;;;;;;5034928;28;20491;-72
2022/12/04 00:39:02;;;;;;;22.63;14.60;;;8.10;99.90;;;;;;5033834;28;20539;-72
2022/12/04 00:41:30;;;;;;;30.50;16.33;;;8.20;99.90;;;;;;5035993;28;20564;-72
2022/12/04 00:43:56;;;;;;;30.33;17.27;;;8.10;99.90;;;;;;5035654;28;20391;-72
2022/12/04 00:46:22;;;;;;;24.40;16.03;;;8.10;99.90;;;;;;5035851;28;20838;-72
2022/12/04 00:48:49;;;;;;;21.20;14.20;;;8.20;99.90;;;;;;5032700;28;20460;-72
2022/12/04 00:51:18;;;;;;;25.10;15.77;;;8.20;99.90;;;;;;5036359;28;20419;-72
2022/12/04 00:53:44;;;;;;;24.77;15.87;;;8.20;99.90;;;;;;5035703;28;20436;-72
2022/12/04 00:56:14;;;;;;;26.63;16.70;;;8.20;99.90;;;;;;5035381;28;20401;-72
2022/12/04 00:58:41;;;;;;;26.80;15.30;;;8.10;99.90;;;;;;5036240;28;20408;-72
2022/12/04 01:01:13;;;;;;;24.57;16.00;;;8.20;99.90;;;;;;5033968;28;20567;-72
2022/12/04 01:03:40;;;;;;;23.10;15.93;;;8.20;99.90;;;;;;5035071;28;20918;-72
2022/12/04 01:06:06;;;;;;;25.47;17.30;;;8.20;99.90;;;;;;5034557;28;20488;-72
2022/12/04 01:08:33;;;;;;;22.60;16.00;;;8.20;99.90;;;;;;5035809;28;20412;-72
2022/12/04 01:10:58;;;;;;;22.30;16.17;;;8.20;99.90;;;;;;5033836;28;20759;-73
2022/12/04 01:13:25;;;;;;;23.23;15.70;;;8.20;99.90;;;;;;5034149;28;20424;-72
2022/12/04 01:15:51;;;;;;;25.67;15.63;;;8.10;99.90;;;;;;5035049;28;20507;-72
2022/12/04 01:18:17;;;;;;;21.37;14.40;;;8.10;99.80;;;;;;5035839;28;20401;-72
2022/12/04 01:20:48;;;;;;;24.80;15.70;;;8.10;99.90;;;;;;5035601;28;20201;-72
2022/12/04 01:23:14;;;;;;;22.50;14.97;;;8.00;99.90;;;;;;5035468;28;20516;-72
2022/12/04 01:25:48;;;;;;;25.40;15.40;;;8.10;99.90;;;;;;5033257;28;20459;-72
2022/12/04 01:28:14;;;;;;;21.83;15.20;;;8.10;99.90;;;;;;5035433;28;20398;-72
2022/12/04 01:30:39;;;;;;;24.33;15.00;;;8.20;99.90;;;;;;5035323;28;20408;-72
2022/12/04 01:33:05;;;;;;;22.73;15.13;;;8.10;99.90;;;;;;5034786;28;20233;-72
2022/12/04 01:35:31;;;;;;;25.20;16.50;;;8.20;99.90;;;;;;5035310;28;20177;-72
2022/12/04 01:37:56;;;;;;;23.40;14.30;;;8.20;99.90;;;;;;5031942;28;20656;-71
2022/12/04 01:40:22;;;;;;;22.20;15.77;;;8.20;99.90;;;;;;5034243;28;20177;-71
2022/12/04 01:42:47;;;;;;;19.13;13.90;;;8.30;99.80;;;;;;5034523;28;20192;-71
2022/12/04 01:45:40;;;;;;;20.30;14.90;;;8.20;99.90;;;;;;5034458;28;20213;-71
2022/12/04 01:48:38;;;;;;;22.77;14.40;;;8.30;99.90;;;;;;5034693;28;20260;-71
2022/12/04 01:51:18;;;;;;;20.20;13.87;;;8.40;99.60;;;;;;5033216;28;20431;-71
2022/12/04 01:54:07;;;;;;;22.20;14.30;;;8.40;99.90;;;;;;5034746;28;20437;-71
2022/12/04 01:56:51;;;;;;;20.30;14.03;;;8.40;99.90;;;;;;5035065;28;20409;-71
2022/12/04 01:59:19;;;;;;;22.73;13.10;;;8.30;99.90;;;;;;5035041;28;20480;-71
2022/12/04 02:02:09;;;;;;;18.43;13.50;;;8.40;99.30;;;;;;5033072;28;20504;-71
2022/12/04 02:04:39;;;;;;;20.07;14.10;;;8.40;99.90;;;;;;5034910;28;20401;-71
2022/12/04 02:07:05;;;;;;;18.20;13.53;;;8.30;99.90;;;;;;5033411;28;20445;-71
2022/12/04 02:09:31;;;;;;;19.57;13.07;;;8.40;99.90;;;;;;5034652;28;20463;-71
2022/12/04 02:12:17;;;;;;;20.00;13.90;;;8.30;99.90;;;;;;5032971;28;20427;-71
2022/12/04 02:15:01;;;;;;;21.60;14.03;;;8.30;99.90;;;;;;5034689;28;20393;-71
2022/12/04 02:17:34;;;;;;;23.37;14.67;;;8.30;99.90;;;;;;5033376;28;20400;-71
2022/12/04 02:20:40;;;;;;;17.87;12.47;;;8.40;99.90;;;;;;5032992;28;20448;-71
2022/12/04 02:23:26;;;;;;;19.20;13.43;;;8.40;99.90;;;;;;5003575;28;20460;-71
2022/12/04 02:26:21;;;;;;;19.70;13.23;;;8.50;99.90;;;;;;5033093;28;20457;-71
2022/12/04 02:28:58;;;;;;;17.10;12.90;;;8.50;99.90;;;;;;5033568;28;20667;-71
2022/12/04 02:31:34;;;;;;;19.77;13.30;;;8.40;99.90;;;;;;5034282;28;20389;-71
2022/12/04 02:34:13;;;;;;;19.20;13.27;;;8.40;99.90;;;;;;5032863;28;20519;-71
2022/12/04 02:36:54;;;;;;;20.10;13.70;;;8.40;99.90;;;;;;5033364;28;20478;-71
2022/12/04 02:39:40;;;;;;;22.17;13.60;;;8.50;99.90;;;;;;5034114;28;20392;-71
2022/12/04 02:42:14;;;;;;;18.47;13.07;;;8.50;99.90;;;;;;5032424;28;20836;-71
2022/12/04 02:44:56;;;;;;;19.67;13.90;;;8.40;99.90;;;;;;5031726;28;20958;-71
2022/12/04 02:47:24;;;;;;;19.60;12.77;;;8.40;99.90;;;;;;5013143;28;20397;-71
2022/12/04 02:50:01;;;;;;;18.40;12.90;;;8.30;99.90;;;;;;5021298;28;20428;-71
2022/12/04 02:52:48;;;;;;;16.80;12.17;;;8.40;99.90;;;;;;5032040;28;20475;-72
2022/12/04 02:55:20;;;;;;;16.03;11.80;;;8.30;99.90;;;;;;5045094;28;20571;-72
2022/12/04 02:57:50;;;;;;;16.70;12.20;;;8.20;99.90;;;;;;5053673;28;20482;-72
2022/12/04 03:00:17;;;;;;;18.67;13.17;;;8.20;99.90;;;;;;5024939;28;20388;-72
2022/12/04 03:02:52;;;;;;;15.63;11.67;;;8.20;99.90;;;;;;5032636;28;20432;-72
2022/12/04 03:05:24;;;;;;;16.10;11.90;;;8.10;99.50;;;;;;5031826;28;20465;-72
2022/12/04 03:07:55;;;;;;;16.43;12.87;;;8.10;98.60;;;;;;5033716;28;20445;-72
2022/12/04 03:10:32;;;;;;;16.70;12.63;;;8.10;99.90;;;;;;5032799;28;20427;-72
2022/12/04 03:13:05;;;;;;;17.70;12.47;;;8.10;98.10;;;;;;5029710;28;20859;-71
2022/12/04 03:15:38;;;;;;;18.77;12.87;;;8.10;96.60;;;;;;5033318;28;20473;-71
2022/12/04 03:18:13;;;;;;;17.50;12.77;;;8.00;97.80;;;;;;5032598;28;20404;-71
2022/12/04 03:20:41;;;;;;;19.37;13.47;;;7.80;97.70;;;;;;5033202;28;20396;-71
2022/12/04 03:23:22;;;;;;;18.47;12.07;;;7.80;99.20;;;;;;5032322;28;20498;-71
2022/12/04 03:26:09;;;;;;;16.33;12.43;;;7.80;99.00;;;;;;5033274;28;20451;-71
2022/12/04 03:29:25;;;;;;;14.87;11.23;;;7.80;98.00;;;;;;5033199;28;20475;-71
2022/12/04 03:32:01;;;;;;;18.43;12.53;;;7.80;99.40;;;;;;5026516;28;20477;-71
2022/12/04 03:34:34;;;;;;;17.67;11.70;;;7.80;99.00;;;;;;5032771;28;20469;-71
2022/12/04 03:37:07;;;;;;;18.67;11.77;;;7.80;98.90;;;;;;5032602;28;20393;-71
2022/12/04 03:39:51;;;;;;;17.10;11.57;;;7.80;99.90;;;;;;5033072;28;20392;-71
2022/12/04 03:42:28;;;;;;;17.97;12.70;;;7.80;99.80;;;;;;5032142;28;20715;-71
2022/12/04 03:45:01;;;;;;;17.30;12.50;;;7.70;99.90;;;;;;5033004;28;20395;-71
2022/12/04 03:47:48;;;;;;;15.60;11.00;;;7.70;98.50;;;;;;5032880;28;20405;-71
2022/12/04 03:50:34;;;;;;;16.83;12.43;;;7.70;97.20;;;;;;5030834;28;20454;-72
2022/12/04 03:53:16;;;;;;;18.33;11.80;;;7.60;97.60;;;;;;5031987;28;20407;-71
2022/12/04 03:55:52;;;;;;;16.20;12.03;;;7.60;99.90;;;;;;5032699;28;20404;-70
2022/12/04 03:58:27;;;;;;;17.70;12.00;;;7.60;99.80;;;;;;5032224;28;20418;-71
2022/12/04 04:00:55;;;;;;;18.33;12.20;;;7.60;98.60;;;;;;5032422;28;20910;-71
2022/12/04 04:03:47;;;;;;;16.50;12.30;;;7.60;98.70;;;;;;5034675;28;20423;-71
2022/12/04 04:06:22;;;;;;;15.23;11.17;;;7.50;97.90;;;;;;5018673;28;20781;-71
2022/12/04 04:08:53;;;;;;;17.93;12.03;;;7.60;99.90;;;;;;5028559;28;20894;-71
2022/12/04 04:11:21;;;;;;;16.30;11.80;;;7.50;99.90;;;;;;5032122;28;20407;-71
2022/12/04 04:25:03;;;;;;;12.80;10.30;;;7.60;98.40;;;;;;5030820;28;20447;-72
2022/12/04 04:27:29;;;;;;;16.70;11.77;;;7.60;98.80;;;;;;5030592;28;20447;-72
2022/12/04 04:29:54;;;;;;;14.70;10.90;;;7.60;99.80;;;;;;5031552;28;20181;-72
2022/12/04 04:32:38;;;;;;;15.83;11.30;;;7.70;99.90;;;;;;5031848;28;20326;-71
2022/12/04 04:35:25;;;;;;;16.13;11.03;;;7.80;99.80;;;;;;5030883;28;20985;-71
2022/12/04 04:38:06;;;;;;;17.10;11.23;;;7.60;98.90;;;;;;5031613;28;20451;-71
2022/12/04 04:40:52;;;;;;;14.73;11.47;;;7.60;98.30;;;;;;5032386;28;20443;-71
2022/12/04 04:43:24;;;;;;;16.70;11.10;;;7.60;97.90;;;;;;5031041;28;20463;-71
2022/12/04 04:46:09;;;;;;;16.83;11.27;;;7.60;99.90;;;;;;5031037;28;20982;-71
2022/12/04 04:48:43;;;;;;;17.00;12.00;;;7.50;99.50;;;;;;5031190;28;20439;-71
2022/12/04 04:51:10;;;;;;;15.67;10.73;;;7.50;99.20;;;;;;5031583;28;20419;-71
2022/12/04 04:53:49;;;;;;;15.80;10.20;;;7.60;99.90;;;;;;5031290;28;20732;-71
2022/12/04 04:56:16;;;;;;;14.60;10.00;;;7.80;99.20;;;;;;5029849;28;20430;-71
2022/12/04 04:58:42;;;;;;;13.90;10.53;;;7.80;99.90;;;;;;5031493;28;20794;-72
2022/12/04 05:01:11;;;;;;;14.23;10.20;;;7.70;99.90;;;;;;5030171;28;20434;-72
2022/12/04 05:03:37;;;;;;;14.33;10.43;;;7.70;99.90;;;;;;5030223;28;20435;-71
2022/12/04 05:06:03;;;;;;;15.57;11.17;;;7.80;99.90;;;;;;5028922;28;20467;-72
2022/12/04 05:08:29;;;;;;;15.37;10.80;;;7.80;98.20;;;;;;5031861;28;20949;-72
2022/12/04 05:10:54;;;;;;;15.27;10.70;;;7.80;97.90;;;;;;5029403;28;20433;-72
2022/12/04 05:13:20;;;;;;;15.00;11.40;;;7.80;99.30;;;;;;5030276;28;20204;-72
2022/12/04 05:16:01;;;;;;;16.93;11.57;;;7.80;99.90;;;;;;5033453;28;20194;-72
2022/12/04 05:18:27;;;;;;;12.87;10.37;;;7.80;99.90;;;;;;5013956;28;20956;-72
2022/12/04 05:20:53;;;;;;;13.57;9.83;;;7.80;98.50;;;;;;5030177;28;20446;-73
2022/12/04 05:23:19;;;;;;;15.77;10.67;;;7.70;97.60;;;;;;5035125;28;20583;-73
2022/12/04 05:25:45;;;;;;;11.93;9.60;;;7.70;96.80;;;;;;5034550;28;20211;-73
2022/12/04 05:28:11;;;;;;;14.20;10.17;;;7.60;96.80;;;;;;5033317;28;20764;-73
2022/12/04 05:30:37;;;;;;;11.90;9.53;;;7.40;96.90;;;;;;5034432;28;20187;-73
2022/12/04 05:33:03;;;;;;;13.80;10.90;;;7.30;99.90;;;;;;5034460;28;20188;-73
2022/12/04 05:35:28;;;;;;;10.40;8.47;;;7.20;98.30;;;;;;5033534;28;20509;-73
2022/12/04 05:37:54;;;;;;;11.53;9.27;;;6.90;97.40;;;;;;5033468;28;20763;-72
2022/12/04 05:40:20;;;;;;;13.00;9.53;;;5.90;98.00;;;;;;5033371;28;20270;-73
2022/12/04 05:42:45;;;;;;;14.20;9.87;;;5.40;99.90;;;;;;5031488;28;20178;-72
2022/12/04 05:45:11;;;;;;;14.63;9.70;;;5.40;99.90;;;;;;5015400;28;20178;-73
2022/12/04 05:47:41;;;;;;;10.50;8.37;;;5.60;99.90;;;;;;5033727;28;20681;-73
2022/12/04 05:50:08;;;;;;;13.10;9.75;;;5.50;99.90;;;;;;5033206;28;20182;-73
2022/12/04 05:52:34;;;;;;;10.02;8.40;;;5.50;99.90;;;;;;5033323;28;20296;-73
2022/12/04 05:55:00;;;;;;;11.97;8.33;;;5.50;99.90;;;;;;5033313;28;20281;-73
2022/12/04 05:57:26;;;;;;;10.33;8.97;;;5.50;99.90;;;;;;5032973;28;20245;-73
2022/12/04 05:59:51;;;;;;;11.55;8.93;;;5.20;99.90;;;;;;5033935;28;20621;-73
2022/12/04 06:02:17;;;;;;;11.67;8.30;;;5.30;99.90;;;;;;5034294;28;20198;-73
2022/12/04 06:04:43;;;;;;;13.50;9.47;;;5.30;99.90;;;;;;5033894;28;20622;-73
2022/12/04 06:07:09;;;;;;;13.40;9.07;;;5.10;99.90;;;;;;5033080;28;20680;-73
2022/12/04 06:09:36;;;;;;;11.02;9.38;;;5.10;99.90;;;;;;5033863;28;20214;-73
2022/12/04 06:12:02;;;;;;;12.85;9.45;;;5.20;99.90;;;;;;5034813;28;20186;-73
2022/12/04 06:14:28;;;;;;;12.32;9.32;;;5.20;99.90;;;;;;5033442;28;20198;-73
2022/12/04 06:16:54;;;;;;;12.30;9.73;;;5.30;99.90;;;;;;5033590;28;20187;-73
2022/12/04 06:19:22;;;;;;;11.38;9.25;;;5.40;99.90;;;;;;5033777;28;20182;-73
2022/12/04 06:21:50;;;;;;;12.45;10.38;;;5.40;99.90;;;;;;5033240;28;20222;-73
2022/12/04 06:24:19;;;;;;;13.25;9.93;;;5.30;99.90;;;;;;5032828;28;20194;-73
2022/12/04 06:26:45;;;;;;;11.55;9.65;;;5.30;99.90;;;;;;5034000;28;20202;-73
2022/12/04 06:29:11;;;;;;;12.80;9.57;;;5.40;99.90;;;;;;5032823;28;20637;-73
2022/12/04 06:31:38;;;;;;;12.98;9.90;;;5.00;99.90;;;;;;5032982;28;20404;-73
2022/12/04 06:34:04;;;;;;;12.77;10.55;;;4.80;99.90;;;;;;5033535;28;20170;-73
2022/12/04 06:36:31;;;;;;;11.45;9.68;;;4.70;99.90;;;;;;5032911;28;20186;-73
2022/12/04 06:38:56;;;;;;;10.63;9.23;;;4.90;99.90;;;;;;5032779;28;20190;-73
2022/12/04 06:41:24;;;;;;;13.10;10.80;;;4.70;99.90;;;;;;5032402;28;20692;-73
2022/12/04 06:43:51;;;;;;;16.42;11.27;;;4.40;99.90;;;;;;5033960;28;20254;-73
2022/12/04 06:46:19;;;;;;;13.27;10.15;;;4.60;99.90;;;;;;5032041;28;20306;-73
2022/12/04 06:48:45;;;;;;;13.95;10.68;;;4.70;99.90;;;;;;5032926;28;20202;-73
2022/12/04 06:51:17;;;;;;;15.35;11.25;;;4.90;99.90;;;;;;5033296;28;20206;-73
2022/12/04 06:53:42;;;;;;;12.80;10.07;;;5.00;99.90;;;;;;5033124;28;20186;-73
2022/12/04 06:56:13;;;;;;;13.63;10.00;;;5.10;99.90;;;;;;5032297;28;20573;-74
2022/12/04 06:58:39;;;;;;;12.90;9.45;;;5.20;99.90;;;;;;5033637;28;20530;-73
2022/12/04 07:01:13;;;;;;;16.15;10.95;;;5.30;99.90;;;;;;5029183;28;20280;-75
2022/12/04 07:03:39;;;;;;;13.27;9.80;;;5.40;99.90;;;;;;5024327;28;20307;-75
2022/12/04 07:06:16;;;;;;;15.15;10.18;;;5.10;99.90;;;;;;5030897;28;20210;-75
2022/12/04 07:08:44;;;;;;;12.35;9.23;;;5.10;99.90;;;;;;5032584;28;20182;-74
2022/12/04 07:11:11;;;;;;;14.38;9.68;;;5.10;99.90;;;;;;5031175;28;20186;-74
2022/12/04 07:13:37;;;;;;;13.85;10.90;;;4.90;99.90;;;;;;5042521;28;20182;-74
2022/12/04 07:16:05;;;;;;;12.98;9.88;;;5.00;99.90;;;;;;5041821;28;20657;-75
2022/12/04 07:18:32;;;;;;;13.48;8.52;;;5.10;99.90;;;;;;5031841;28;20377;-74
2022/12/04 07:20:58;;;;;;;12.68;9.68;;;5.10;99.90;;;;;;5032266;28;20228;-74
2022/12/04 07:23:24;;;;;;;14.90;9.48;;;4.90;99.90;;;;;;5031314;28;20222;-74
2022/12/04 07:25:50;;;;;;;12.20;9.70;;;4.60;99.90;;;;;;5033199;28;20210;-74
2022/12/04 07:28:16;;;;;;;11.97;9.50;;;4.30;99.90;;;;;;5042092;28;21010;-74
2022/12/04 07:30:42;;;;;;;14.33;9.83;;;4.50;99.90;;;;;;5045524;28;20437;-74
2022/12/04 07:33:07;;;;;;;14.00;9.50;;;4.60;99.90;;;;;;5032962;28;20712;-74
2022/12/04 07:35:33;;;;;;;12.60;9.70;;;4.90;99.90;;;;;;5031540;28;20190;-75
2022/12/04 07:37:59;;;;;;;12.37;9.90;;;4.30;99.90;;;;;;5032455;28;20178;-74
2022/12/04 07:40:24;;;;;;;19.27;12.43;;;4.40;99.90;;;;;;5043346;28;20174;-74
2022/12/04 07:42:50;;;;;;;11.13;9.00;;;4.60;99.90;;;;;;5032096;28;20698;-74
2022/12/04 07:45:16;;;;;;;12.10;9.77;;;4.80;99.90;;;;;;5032479;28;20210;-74
2022/12/04 07:47:41;;;;;;;14.00;10.37;;;4.90;99.90;;;;;;5032267;28;20174;-74
2022/12/04 07:50:07;;;;;;;12.30;9.93;;;5.00;99.90;;;;;;5027491;28;20629;-75
2022/12/04 07:52:37;;;;;;;11.02;9.38;;;5.10;99.90;;;;;;5031886;28;20178;-77
2022/12/04 07:55:04;;;;;;;12.93;9.70;;;5.10;99.90;;;;;;5031564;28;20201;-72
2022/12/04 07:57:30;;;;;;;12.38;9.55;;;5.20;99.90;;;;;;5032075;28;20619;-72
2022/12/04 07:59:56;;;;;;;11.93;9.60;;;5.30;99.90;;;;;;5031114;28;20181;-72
2022/12/04 08:02:21;;;;;;;10.53;8.83;;;5.30;99.90;;;;;;5002569;28;20642;-72
2022/12/04 08:04:47;;;;;;;12.50;10.10;;;5.30;99.90;;;;;;5022635;28;20253;-72
2022/12/04 08:07:13;;;;;;;10.23;9.00;;;5.30;99.90;;;;;;5030689;28;20209;-73
2022/12/04 08:09:39;;;;;;;12.33;9.43;;;5.40;99.90;;;;;;5032633;28;20533;-72
2022/12/04 08:12:05;;;;;;;12.80;9.67;;;5.40;99.90;;;;;;5032561;28;20177;-72
2022/12/04 08:14:31;;;;;;;14.05;10.65;;;5.30;99.90;;;;;;5028412;28;20187;-72
2022/12/04 08:16:56;;;;;;;13.40;10.50;;;5.40;99.90;;;;;;5029379;28;20437;-72
2022/12/04 08:19:22;;;;;;;13.80;11.50;;;5.50;99.90;;;;;;5027802;28;20426;-72
2022/12/04 08:21:48;;;;;;;13.40;10.40;;;5.50;99.90;;;;;;5031708;28;20716;-73
2022/12/04 08:24:16;;;;;;;13.57;9.70;;;5.60;99.90;;;;;;5027366;28;20503;-73
2022/12/04 08:26:42;;;;;;;13.55;10.02;;;5.50;99.90;;;;;;5030615;28;20496;-72
2022/12/04 08:29:08;;;;;;;11.00;9.37;;;5.60;99.90;;;;;;5033664;28;20169;-71
2022/12/04 08:31:34;;;;;;;12.37;9.47;;;5.60;99.90;;;;;;5051542;28;20782;-78
2022/12/04 08:34:03;;;;;;;13.70;11.02;;;5.60;99.90;;;;;;5052808;28;20269;-78
2022/12/04 08:36:29;;;;;;;12.02;10.15;;;5.50;99.90;;;;;;5042320;28;20178;-77
2022/12/04 08:38:55;;;;;;;11.63;10.40;;;5.40;99.90;;;;;;5031972;28;20186;-83
2022/12/04 08:41:22;;;;;;;10.60;9.50;;;5.50;99.90;;;;;;5030269;28;20400;-77
2022/12/04 08:43:49;;;;;;;12.27;10.35;;;5.40;99.90;;;;;;5031225;28;20436;-77
2022/12/04 08:46:17;;;;;;;12.85;8.80;;;5.00;99.90;;;;;;5031897;28;20214;-75
2022/12/04 08:48:43;;;;;;;10.93;8.45;;;5.00;99.90;;;;;;5032674;28;20211;-77
2022/12/04 08:51:15;;;;;;;12.95;9.55;;;5.10;99.90;;;;;;5035270;28;20186;-78
2022/12/04 08:53:40;;;;;;;12.00;8.32;;;4.90;99.90;;;;;;5036292;28;20720;-77
2022/12/04 08:56:09;;;;;;;13.73;9.20;;;4.80;99.90;;;;;;5035859;28;20210;-77
2022/12/04 08:58:34;;;;;;;14.05;9.55;;;4.90;99.90;;;;;;5035143;28;20182;-78
2022/12/04 09:01:12;;;;;;;9.97;8.30;;;5.10;99.90;;;;;;5035478;28;20198;-77
2022/12/04 09:03:38;;;;;;;14.38;9.52;;;5.20;99.90;;;;;;5034677;28;20186;-77
2022/12/04 09:06:05;;;;;;;13.63;10.23;;;5.40;99.90;;;;;;5035502;28;20210;-78
2022/12/04 09:08:31;;;;;;;10.30;8.50;;;5.30;99.90;;;;;;5035640;28;20175;-77
2022/12/04 09:11:17;;;;;;;9.38;7.65;;;5.40;99.90;;;;;;5036075;28;20225;-77
2022/12/04 09:13:43;;;;;;;11.50;8.93;;;5.40;99.90;;;;;;5035513;28;20213;-77
2022/12/04 09:16:12;;;;;;;13.68;8.90;;;5.40;99.90;;;;;;5036183;28;20189;-78
2022/12/04 09:18:38;;;;;;;10.60;8.48;;;5.40;99.90;;;;;;5034220;28;20182;-77
2022/12/04 09:21:07;;;;;;;12.95;9.43;;;5.30;99.90;;;;;;5041749;28;20190;-78
2022/12/04 09:23:33;;;;;;;11.43;8.75;;;5.40;99.90;;;;;;5026430;28;20222;-77
2022/12/04 09:25:59;;;;;;;12.68;8.13;;;5.60;99.90;;;;;;5032309;28;20240;-77
2022/12/04 09:28:26;;;;;;;10.40;8.67;;;5.60;99.90;;;;;;5015199;28;20187;-77
2022/12/04 09:31:04;;;;;;;11.82;9.15;;;5.70;99.90;;;;;;5045141;28;20194;-79
2022/12/04 09:33:30;;;;;;;9.43;8.10;;;5.70;99.90;;;;;;5034453;28;20266;-78
2022/12/04 09:36:01;;;;;;;12.20;8.70;;;5.90;99.90;;;;;;5033963;28;20705;-78
2022/12/04 09:38:27;;;;;;;12.15;8.40;;;5.90;99.90;;;;;;5034859;28;20293;-78
2022/12/04 09:41:01;;;;;;;11.88;7.82;;;5.90;99.90;;;;;;5033423;28;20213;-76
2022/12/04 09:43:41;;;;;;;12.02;9.65;;;5.90;99.90;;;;;;5021886;28;20184;-78
2022/12/04 09:46:15;;;;;;;11.95;8.65;;;5.90;99.90;;;;;;5015139;28;20553;-78
2022/12/04 09:48:43;;;;;;;9.85;8.20;;;5.90;99.90;;;;;;5030161;28;20190;-77
2022/12/04 09:51:17;;;;;;;10.40;9.10;;;5.80;99.90;;;;;;5035049;28;20539;-80
2022/12/04 09:53:51;;;;;;;11.27;9.03;;;6.90;99.90;;;;;;5032911;28;20991;-79
2022/12/04 09:56:18;;;;;;;14.47;11.63;;;7.90;99.90;;;;;;5034259;28;20462;-79
2022/12/04 09:59:23;;;;;;;10.97;9.80;;;8.60;99.90;;;;;;5033120;28;20429;-77
2022/12/04 10:01:57;;;;;;;10.93;8.80;;;9.70;99.90;;;;;;5035551;28;20420;-78
2022/12/04 10:04:23;;;;;;;12.77;9.60;;;10.10;99.90;;;;;;5049447;28;20413;-77
2022/12/04 10:07:09;;;;;;;11.37;9.13;;;10.30;99.90;;;;;;5054201;28;20459;-77
2022/12/04 10:09:35;;;;;;;10.47;8.47;;;10.30;99.90;;;;;;5052462;28;20482;-77
2022/12/04 10:12:06;;;;;;;10.60;8.80;;;10.20;95.30;;;;;;5054572;28;20763;-77
2022/12/04 10:15:05;;;;;;;10.63;9.53;;;9.80;95.90;;;;;;5053876;28;20189;-77
2022/12/04 10:17:56;;;;;;;12.40;9.20;;;9.20;92.00;;;;;;5028866;28;20433;-76
2022/12/04 10:20:56;;;;;;;10.70;9.07;;;9.10;96.00;;;;;;5027088;28;20477;-76
2022/12/04 10:23:52;;;;;;;11.10;9.67;;;8.80;97.00;;;;;;5024684;28;20806;-77
2022/12/04 10:26:23;;;;;;;11.80;9.47;;;9.50;99.90;;;;;;5024788;28;20443;-77
2022/12/04 10:29:02;;;;;;;11.20;8.20;;;10.10;98.90;;;;;;5025502;28;20745;-76
2022/12/04 10:31:29;;;;;;;10.93;9.70;;;10.70;99.40;;;;;;5024376;28;20904;-77
2022/12/04 10:34:04;;;;;;;13.40;10.17;;;11.20;96.40;;;;;;5024139;28;20418;-76
2022/12/04 10:36:33;;;;;;;11.50;9.80;;;11.50;97.20;;;;;;5023074;28;20480;-77
2022/12/04 10:39:03;;;;;;;15.60;11.30;;;11.80;94.30;;;;;;5030411;28;20436;-75
2022/12/04 10:41:43;;;;;;;20.67;14.10;;;12.10;96.10;;;;;;5029827;28;20444;-77
2022/12/04 10:44:14;;;;;;;15.30;12.53;;;12.50;94.50;;;;;;5026205;28;20432;-77
2022/12/04 10:46:40;;;;;;;12.07;10.63;;;12.80;94.10;;;;;;5026526;28;20460;-77
2022/12/04 10:49:28;;;;;;;12.63;10.67;;;12.90;92.40;;;;;;5024875;28;20438;-78
2022/12/04 10:51:54;;;;;;;11.53;10.33;;;13.10;90.50;;;;;;5023109;28;20444;-77
2022/12/04 10:54:31;;;;;;;12.57;10.80;;;13.10;89.50;;;;;;5024775;28;20424;-77
2022/12/04 10:56:58;;;;;;;12.40;11.20;;;13.20;87.90;;;;;;5031947;28;20505;-77
2022/12/04 10:59:25;;;;;;;13.53;12.17;;;13.10;89.80;;;;;;5023808;28;20465;-76
2022/12/04 11:02:08;;;;;;;12.13;10.60;;;13.30;91.40;;;;;;5024392;28;20480;-76
2022/12/04 11:04:35;;;;;;;12.80;11.50;;;13.50;89.20;;;;;;5030243;28;20410;-76
2022/12/04 11:07:07;;;;;;;12.50;11.20;;;13.60;90.50;;;;;;5023920;28;21037;-76
2022/12/04 11:09:35;;;;;;;14.00;11.70;;;13.70;90.00;;;;;;5029807;28;20467;-76
2022/12/04 11:12:17;;;;;;;12.23;11.03;;;13.90;90.10;;;;;;5025742;28;20448;-75
2022/12/04 11:14:42;;;;;;;14.50;12.30;;;14.00;88.80;;;;;;5023964;28;20437;-75
2022/12/04 11:17:18;;;;;;;13.80;11.90;;;14.00;87.10;;;;;;5024924;28;20877;-75
2022/12/04 11:19:44;;;;;;;15.13;12.27;;;14.10;85.20;;;;;;5028839;28;20495;-75
2022/12/04 11:22:18;;;;;;;16.57;13.60;;;14.10;89.00;;;;;;5026132;28;20456;-76
2022/12/04 11:24:54;;;;;;;13.73;10.70;;;14.20;89.50;;;;;;5023779;28;20420;-75
2022/12/04 11:27:33;;;;;;;11.70;10.27;;;14.30;86.40;;;;;;5021714;28;20453;-76
2022/12/04 11:30:07;;;;;;;12.83;10.77;;;14.30;86.10;;;;;;5026382;28;20461;-76
2022/12/04 11:32:33;;;;;;;12.50;10.73;;;14.20;80.80;;;;;;5026415;28;20407;-75
2022/12/04 11:35:12;;;;;;;16.73;12.20;;;13.90;75.70;;;;;;5025084;28;20527;-75
2022/12/04 11:37:38;;;;;;;12.83;11.63;;;13.80;82.00;;;;;;5026846;28;20412;-76
2022/12/04 11:40:13;;;;;;;15.50;11.67;;;13.70;83.10;;;;;;5023560;28;20962;-75
2022/12/04 11:42:39;;;;;;;13.37;12.07;;;13.80;81.20;;;;;;5023836;28;20428;-75
2022/12/04 11:45:19;;;;;;;14.00;12.40;;;13.80;78.50;;;;;;5025995;28;20420;-75
2022/12/04 11:47:53;;;;;;;16.13;10.93;;;13.90;81.50;;;;;;5022864;28;20476;-75
2022/12/04 11:50:34;;;;;;;13.23;11.80;;;14.00;83.30;;;;;;5024535;28;20484;-75
2022/12/04 11:53:12;;;;;;;13.13;11.73;;;14.10;84.30;;;;;;5028304;28;20417;-76
2022/12/04 11:56:09;;;;;;;14.70;12.00;;;14.30;84.00;;;;;;5024126;28;20439;-76
2022/12/04 11:59:10;;;;;;;13.97;11.20;;;14.40;82.50;;;;;;5021984;28;20814;-76
2022/12/04 12:01:49;;;;;;;14.50;11.43;;;14.40;83.90;;;;;;5021968;28;20415;-73
2022/12/04 12:04:33;;;;;;;17.20;12.77;;;14.50;81.90;;;;;;5028893;28;20959;-75
2022/12/04 12:07:08;;;;;;;15.30;11.70;;;14.20;80.10;;;;;;5028626;28;20799;-76
2022/12/04 12:10:14;;;;;;;18.40;13.80;;;14.40;84.30;;;;;;5020233;28;20410;-75
2022/12/04 12:13:04;;;;;;;15.93;12.40;;;14.60;84.40;;;;;;5022785;28;20908;-76
2022/12/04 12:15:42;;;;;;;18.70;14.97;;;14.60;82.90;;;;;;5026115;28;20493;-73
2022/12/04 12:18:31;;;;;;;15.10;12.20;;;14.80;81.50;;;;;;5023159;28;20410;-78
2022/12/04 12:21:09;;;;;;;16.53;13.03;;;14.80;80.80;;;;;;5026551;28;20795;-76
2022/12/04 12:23:43;;;;;;;18.50;13.83;;;14.80;83.00;;;;;;5021794;28;20514;-75
2022/12/04 12:26:13;;;;;;;22.97;17.30;;;14.80;81.50;;;;;;5024203;28;20460;-76
2022/12/04 12:28:56;;;;;;;16.33;13.10;;;14.80;83.30;;;;;;5025312;28;20765;-76
2022/12/04 12:31:49;;;;;;;17.70;13.80;;;14.70;83.00;;;;;;5028023;28;20495;-76
2022/12/04 12:34:35;;;;;;;31.23;18.37;;;14.80;82.00;;;;;;5026384;28;20393;-75
2022/12/04 12:37:10;;;;;;;16.57;13.47;;;14.70;85.40;;;;;;5028854;28;20490;-75
2022/12/04 12:39:48;;;;;;;30.03;20.73;;;14.60;82.70;;;;;;5025888;28;20794;-76
2022/12/04 12:42:22;;;;;;;21.27;16.13;;;14.40;83.90;;;;;;5026108;28;20907;-76
2022/12/04 12:45:04;;;;;;;22.07;16.20;;;14.20;84.30;;;;;;5024382;28;21104;-76
2022/12/04 12:47:38;;;;;;;19.30;14.37;;;14.20;87.60;;;;;;5026043;28;20452;-74
2022/12/04 12:50:20;;;;;;;16.83;12.87;;;14.10;87.00;;;;;;5025724;28;20401;-76
2022/12/04 12:52:57;;;;;;;16.90;14.77;;;14.20;84.60;;;;;;5046396;28;20430;-76
2022/12/04 12:55:39;;;;;;;14.57;12.13;;;14.20;80.30;;;;;;5030027;28;20940;-76
2022/12/04 12:58:05;;;;;;;21.40;17.30;;;14.00;84.30;;;;;;5029039;28;20412;-76
2022/12/04 13:00:39;;;;;;;16.30;14.10;;;14.00;83.80;;;;;;5028011;28;20426;-75
2022/12/04 13:03:43;;;;;;;14.57;13.07;;;14.00;80.60;;;;;;5029044;28;20271;-76
2022/12/04 13:06:15;;;;;;;24.80;19.53;;;14.00;86.40;;;;;;5026359;28;20914;-75
2022/12/04 13:08:49;;;;;;;14.67;12.80;;;13.80;81.00;;;;;;5026011;28;20488;-75
2022/12/04 13:11:22;;;;;;;17.37;14.63;;;13.90;88.40;;;;;;5031785;28;20460;-76
2022/12/04 13:13:57;;;;;;;17.67;14.50;;;14.00;90.00;;;;;;5026814;28;20428;-76